Time;durP1;ratioP1;P1;durP2;ratioP2;P2;SDS_P1;SDS_P2;PMS_P1;PMS_P2;Temp;Humidity;BMP_temperature;BMP_pressure;BME280_temperature;BME280_humidity;BME280_pressure;Samples;Min_cycle;Max_cycle;Signal;HPM_P1;HPM_P2
2023/03/30 00:01:16;;;;;;;7.90;5.03;;;;;;;12.11;100.00;98492.16;5071281;28;20195;-80
2023/03/30 00:03:46;;;;;;;13.97;7.57;;;;;;;12.07;100.00;98479.25;5070568;28;20226;-80
2023/03/30 00:06:20;;;;;;;19.43;11.93;;;;;;;12.15;100.00;98477.63;5076147;28;20203;-80
2023/03/30 00:08:52;;;;;;;6.53;3.90;;;;;;;12.09;100.00;98472.00;5075991;28;20223;-80
2023/03/30 00:11:21;;;;;;;7.20;3.77;;;;;;;11.88;100.00;98466.63;5073324;28;20188;-80
2023/03/30 00:13:51;;;;;;;7.30;3.73;;;;;;;11.91;100.00;98467.22;5073265;28;20242;-79
2023/03/30 00:16:20;;;;;;;8.30;4.93;;;;;;;11.94;100.00;98453.69;5066938;28;20220;-79
2023/03/30 00:18:49;;;;;;;14.03;9.87;;;;;;;11.97;100.00;98449.97;5073065;28;20685;-80
2023/03/30 00:21:19;;;;;;;11.70;7.47;;;;;;;12.03;100.00;98457.41;5074051;28;20208;-80
2023/03/30 00:23:47;;;;;;;7.30;3.50;;;;;;;12.02;100.00;98467.19;5072751;28;20450;-80
2023/03/30 00:26:18;;;;;;;7.87;3.83;;;;;;;11.94;100.00;98472.25;5069417;28;20251;-80
2023/03/30 00:28:47;;;;;;;8.03;3.90;;;;;;;11.88;100.00;98471.94;5071412;28;20197;-79
2023/03/30 00:31:15;;;;;;;11.13;5.37;;;;;;;11.98;100.00;98464.91;5065583;28;20651;-80
2023/03/30 00:33:44;;;;;;;8.97;3.73;;;;;;;12.09;100.00;98469.34;5060681;28;20696;-80
2023/03/30 00:36:15;;;;;;;9.90;5.13;;;;;;;12.06;100.00;98466.94;5074059;28;20687;-80
2023/03/30 00:38:47;;;;;;;7.53;3.23;;;;;;;12.04;100.00;98467.91;5070646;28;20232;-80
2023/03/30 00:41:15;;;;;;;7.23;3.30;;;;;;;11.97;100.00;98461.41;5069667;28;20204;-79
2023/03/30 00:43:59;;;;;;;8.23;3.70;;;;;;;11.90;100.00;98435.50;5068231;28;20238;-80
2023/03/30 00:46:29;;;;;;;8.50;4.60;;;;;;;12.04;100.00;98441.34;5022311;28;20195;-79
2023/03/30 00:49:03;;;;;;;5.60;3.17;;;;;;;11.91;100.00;98437.19;5070962;28;20250;-80
2023/03/30 00:51:38;;;;;;;5.63;3.33;;;;;;;11.93;100.00;98441.38;5067723;28;20264;-79
2023/03/30 00:54:13;;;;;;;5.83;3.23;;;;;;;11.88;100.00;98446.25;5072688;28;20245;-79
2023/03/30 00:56:42;;;;;;;5.80;3.40;;;;;;;12.06;100.00;98443.03;5071471;28;20220;-79
2023/03/30 00:59:13;;;;;;;5.90;3.00;;;;;;;11.98;100.00;98449.00;5065549;28;20263;-79
2023/03/30 01:01:48;;;;;;;5.37;2.80;;;;;;;11.83;100.00;98455.53;5069591;28;20200;-79
2023/03/30 01:04:17;;;;;;;4.53;2.93;;;;;;;12.02;100.00;98461.88;5068951;28;20204;-79
2023/03/30 01:06:47;;;;;;;4.27;3.20;;;;;;;11.92;100.00;98465.41;5062406;28;20203;-80
2023/03/30 01:09:16;;;;;;;4.97;2.80;;;;;;;11.93;100.00;98454.66;5007881;28;20194;-79
2023/03/30 01:11:45;;;;;;;4.67;3.17;;;;;;;11.91;100.00;98448.63;5005454;28;20206;-79
2023/03/30 01:14:17;;;;;;;8.63;3.00;;;;;;;11.95;100.00;98451.88;5011837;28;20198;-79
2023/03/30 01:16:53;;;;;;;7.73;3.03;;;;;;;11.87;100.00;98443.69;5008151;28;20215;-79
2023/03/30 01:19:55;;;;;;;4.80;2.93;;;;;;;11.85;100.00;98441.16;5010727;28;20285;-80
2023/03/30 01:22:52;;;;;;;7.57;3.07;;;;;;;11.92;100.00;98437.06;5011546;28;20268;-78
2023/03/30 01:25:59;;;;;;;5.57;3.03;;;;;;;11.86;100.00;98429.56;5008795;28;20203;-80
2023/03/30 01:28:38;;;;;;;6.67;3.00;;;;;;;11.89;100.00;98426.69;4993803;28;20195;-79
2023/03/30 01:31:42;;;;;;;5.63;3.07;;;;;;;11.88;100.00;98425.00;5070584;28;20188;-79
2023/03/30 01:34:33;;;;;;;6.47;3.17;;;;;;;11.76;100.00;98416.19;5070422;28;20201;-79
2023/03/30 01:37:23;;;;;;;6.10;3.33;;;;;;;11.73;100.00;98424.41;5047738;28;20221;-79
2023/03/30 01:40:01;;;;;;;7.23;3.17;;;;;;;11.77;100.00;98419.66;5047600;28;20326;-80
2023/03/30 01:42:36;;;;;;;9.67;3.60;;;;;;;11.79;100.00;98417.75;5046620;28;20278;-79
2023/03/30 01:45:10;;;;;;;6.40;3.30;;;;;;;11.63;100.00;98407.53;5050378;28;20203;-79
2023/03/30 01:47:45;;;;;;;4.90;3.20;;;;;;;11.72;100.00;98409.44;5053320;28;20254;-79
2023/03/30 01:50:17;;;;;;;4.23;2.80;;;;;;;11.77;100.00;98419.66;5057544;28;20220;-79
2023/03/30 01:52:53;;;;;;;9.70;3.07;;;;;;;11.83;100.00;98424.53;5061096;28;20200;-80
2023/03/30 01:55:27;;;;;;;6.97;2.80;;;;;;;11.78;100.00;98424.03;5050379;28;20200;-80
2023/03/30 01:58:00;;;;;;;6.43;3.10;;;;;;;11.82;100.00;98414.03;5051359;28;20220;-79
2023/03/30 02:00:30;;;;;;;5.97;3.20;;;;;;;11.70;100.00;98419.34;5050242;28;20724;-79
2023/03/30 02:03:05;;;;;;;6.37;2.80;;;;;;;11.76;100.00;98418.00;5051410;28;20193;-80
2023/03/30 02:05:35;;;;;;;8.97;3.20;;;;;;;11.75;100.00;98403.03;5053036;28;20250;-79
2023/03/30 02:08:10;;;;;;;7.63;3.20;;;;;;;11.63;100.00;98414.66;5051910;28;20257;-79
2023/03/30 02:10:42;;;;;;;6.53;3.27;;;;;;;11.74;100.00;98409.31;5048727;28;20204;-79
2023/03/30 02:13:13;;;;;;;4.47;2.90;;;;;;;11.71;100.00;98409.56;5049318;28;20208;-80
2023/03/30 02:15:44;;;;;;;8.60;3.47;;;;;;;11.64;100.00;98430.44;4986757;28;20262;-79
2023/03/30 02:18:13;;;;;;;5.90;3.27;;;;;;;11.63;100.00;98412.84;4989423;28;20215;-79
2023/03/30 02:20:41;;;;;;;9.47;3.47;;;;;;;11.71;100.00;98442.25;4986827;28;20249;-79
2023/03/30 02:23:10;;;;;;;5.07;3.30;;;;;;;11.69;100.00;98443.34;4985997;28;20203;-79
2023/03/30 02:25:40;;;;;;;7.63;3.20;;;;;;;11.74;100.00;98452.59;4984163;28;20199;-79
2023/03/30 02:28:10;;;;;;;7.73;3.23;;;;;;;11.60;100.00;98460.00;4988886;28;20190;-79
2023/03/30 02:30:42;;;;;;;5.43;3.00;;;;;;;11.72;100.00;98454.53;4984693;28;20251;-79
2023/03/30 02:33:24;;;;;;;6.53;3.50;;;;;;;11.60;100.00;98465.31;4983877;28;20191;-79
2023/03/30 02:36:13;;;;;;;6.67;3.50;;;;;;;11.55;100.00;98478.06;4989569;28;20237;-79
2023/03/30 02:39:06;;;;;;;6.50;3.60;;;;;;;11.62;100.00;98490.72;4987391;28;20278;-80
2023/03/30 02:41:59;;;;;;;6.67;3.10;;;;;;;11.62;100.00;98521.72;4988514;28;20203;-80
2023/03/30 02:44:38;;;;;;;5.63;3.30;;;;;;;11.42;100.00;98512.66;4988261;28;20274;-79
2023/03/30 02:47:12;;;;;;;9.23;3.70;;;;;;;11.44;100.00;98500.13;4983128;28;20662;-80
2023/03/30 02:49:57;;;;;;;6.13;4.03;;;;;;;11.53;100.00;98496.75;4984519;28;20205;-79
2023/03/30 02:52:40;;;;;;;8.60;4.20;;;;;;;11.31;100.00;98472.91;4997295;28;20724;-79
2023/03/30 02:55:15;;;;;;;7.83;4.37;;;;;;;11.15;100.00;98507.69;5050997;28;20197;-79
2023/03/30 02:57:55;;;;;;;8.43;3.90;;;;;;;11.06;100.00;98511.03;5051306;28;20216;-79
2023/03/30 03:00:27;;;;;;;8.40;4.53;;;;;;;11.19;100.00;98503.81;5044374;28;20250;-78
2023/03/30 03:03:02;;;;;;;6.83;4.17;;;;;;;11.28;100.00;98489.88;5051655;28;20263;-78
2023/03/30 03:05:32;;;;;;;9.70;4.07;;;;;;;11.37;100.00;98475.88;5051341;28;20192;-79
2023/03/30 03:08:01;;;;;;;8.03;4.23;;;;;;;11.44;100.00;98469.16;5050209;28;20205;-79
2023/03/30 03:10:29;;;;;;;10.30;3.90;;;;;;;11.40;100.00;98457.09;5050646;28;20236;-79
2023/03/30 03:12:58;;;;;;;7.83;4.13;;;;;;;11.42;100.00;98443.72;5044579;28;20259;-78
2023/03/30 03:15:27;;;;;;;9.43;4.53;;;;;;;11.25;100.00;98458.31;5051522;28;20223;-78
2023/03/30 03:17:57;;;;;;;7.40;4.00;;;;;;;11.22;100.00;98450.59;5052088;28;20684;-79
2023/03/30 03:20:29;;;;;;;5.73;3.87;;;;;;;11.11;100.00;98454.09;5047561;28;20212;-78
2023/03/30 03:22:57;;;;;;;9.53;4.17;;;;;;;10.99;100.00;98467.41;5048832;28;20247;-78
2023/03/30 03:25:25;;;;;;;9.47;4.33;;;;;;;10.94;100.00;98473.09;5048314;28;20189;-78
2023/03/30 03:27:56;;;;;;;7.00;3.30;;;;;;;11.24;100.00;98488.41;5051971;28;20228;-78
2023/03/30 03:30:26;;;;;;;8.93;4.13;;;;;;;11.25;100.00;98500.72;5051453;28;20201;-78
2023/03/30 03:32:54;;;;;;;7.47;3.03;;;;;;;11.42;100.00;98505.56;5044597;28;20189;-79
2023/03/30 03:35:23;;;;;;;6.43;3.30;;;;;;;11.52;100.00;98511.00;5056306;28;20236;-79
2023/03/30 03:37:51;;;;;;;7.47;3.40;;;;;;;11.53;100.00;98517.13;5066336;28;20217;-79
2023/03/30 03:40:20;;;;;;;11.93;3.60;;;;;;;11.70;100.00;98484.81;5063437;28;20189;-79
2023/03/30 03:42:49;;;;;;;13.23;3.20;;;;;;;11.74;100.00;98481.78;5068855;28;20200;-80
2023/03/30 03:45:18;;;;;;;8.33;3.70;;;;;;;11.84;100.00;98468.66;5069675;28;20188;-80
2023/03/30 03:47:52;;;;;;;6.33;3.20;;;;;;;11.96;100.00;98438.47;5068804;28;20487;-80
2023/03/30 03:50:20;;;;;;;11.10;3.53;;;;;;;11.96;100.00;98442.94;5068330;28;20379;-80
2023/03/30 03:52:50;;;;;;;10.50;3.17;;;;;;;12.02;100.00;98418.56;5068598;28;20200;-79
2023/03/30 03:55:20;;;;;;;8.97;3.23;;;;;;;12.18;100.00;98368.56;5068790;28;20200;-80
2023/03/30 03:57:48;;;;;;;8.07;3.17;;;;;;;12.32;100.00;98332.88;5069622;28;20200;-80
2023/03/30 04:00:17;;;;;;;11.00;4.10;;;;;;;12.43;100.00;98318.69;5072562;28;20250;-80
2023/03/30 04:02:46;;;;;;;11.23;3.67;;;;;;;12.51;100.00;98316.22;5072336;28;20216;-79
2023/03/30 04:05:16;;;;;;;47.60;22.93;;;;;;;12.66;100.00;98344.16;5068153;28;20200;-79
2023/03/30 04:07:45;;;;;;;27.43;15.10;;;;;;;12.48;100.00;98351.03;5016232;28;20207;-80
2023/03/30 04:10:14;;;;;;;12.13;4.70;;;;;;;12.44;100.00;98342.47;5066700;28;20192;-80
2023/03/30 04:12:42;;;;;;;13.80;3.50;;;;;;;12.33;100.00;98343.38;5068493;28;20188;-79
2023/03/30 04:15:11;;;;;;;7.87;3.40;;;;;;;12.18;100.00;98336.72;5062077;28;20224;-80
2023/03/30 04:17:39;;;;;;;10.23;5.20;;;;;;;12.12;100.00;98337.22;5037883;28;20205;-79
2023/03/30 04:20:10;;;;;;;9.80;4.40;;;;;;;12.20;100.00;98334.75;5071493;28;20216;-79
2023/03/30 04:22:41;;;;;;;7.17;3.77;;;;;;;12.13;100.00;98328.28;5068663;28;20196;-79
2023/03/30 04:25:13;;;;;;;6.77;3.10;;;;;;;12.06;100.00;98331.56;5073451;28;20193;-79
2023/03/30 04:27:42;;;;;;;10.47;3.60;;;;;;;12.01;100.00;98326.66;5068848;28;20250;-79
2023/03/30 04:30:12;;;;;;;6.43;3.13;;;;;;;11.93;100.00;98340.56;5066992;28;20200;-80
2023/03/30 04:32:43;;;;;;;9.37;3.87;;;;;;;11.95;100.00;98335.94;5072710;28;20243;-79
2023/03/30 04:35:13;;;;;;;10.53;3.60;;;;;;;11.81;100.00;98338.06;5066452;28;20246;-80
2023/03/30 04:37:44;;;;;;;10.97;3.80;;;;;;;11.69;100.00;98316.88;5064328;28;20196;-79
2023/03/30 04:40:15;;;;;;;5.80;3.40;;;;;;;11.68;100.00;98325.78;5065640;28;20270;-80
2023/03/30 04:42:48;;;;;;;10.03;3.47;;;;;;;11.70;100.00;98326.50;5074471;28;20196;-80
2023/03/30 04:45:19;;;;;;;14.43;5.27;;;;;;;11.66;100.00;98326.88;5071373;28;20200;-80
2023/03/30 04:47:48;;;;;;;9.53;3.80;;;;;;;11.61;100.00;98321.09;5024177;28;20192;-80
2023/03/30 04:50:16;;;;;;;6.97;3.33;;;;;;;11.49;100.00;98332.72;5065588;28;20269;-79
2023/03/30 04:52:46;;;;;;;7.00;3.80;;;;;;;11.52;100.00;98317.41;5069750;28;20199;-79
2023/03/30 04:55:14;;;;;;;7.83;3.80;;;;;;;11.43;100.00;98326.09;5030567;28;20197;-79
2023/03/30 04:57:43;;;;;;;9.27;3.67;;;;;;;11.49;100.00;98304.38;5028064;28;20283;-79
2023/03/30 05:00:13;;;;;;;13.17;5.60;;;;;;;11.36;100.00;98288.63;5032005;28;20708;-79
2023/03/30 05:02:42;;;;;;;10.10;4.10;;;;;;;11.38;100.00;98296.44;5023617;28;20200;-80
2023/03/30 05:05:11;;;;;;;7.87;3.47;;;;;;;11.38;100.00;98305.22;5029277;28;20201;-80
2023/03/30 05:07:39;;;;;;;11.47;4.00;;;;;;;11.46;100.00;98286.91;5020886;28;20201;-80
2023/03/30 05:10:11;;;;;;;8.50;3.93;;;;;;;11.35;100.00;98283.44;5024686;28;20197;-80
2023/03/30 05:12:40;;;;;;;9.00;4.17;;;;;;;11.47;100.00;98282.44;4992105;28;20250;-79
2023/03/30 05:15:09;;;;;;;11.43;3.87;;;;;;;11.39;100.00;98283.09;4989782;28;20195;-80
2023/03/30 05:17:38;;;;;;;7.00;3.60;;;;;;;11.28;100.00;98280.44;4986241;28;20222;-80
2023/03/30 05:20:08;;;;;;;10.33;4.13;;;;;;;11.25;100.00;98278.03;5009008;28;20248;-79
2023/03/30 05:22:37;;;;;;;12.33;4.93;;;;;;;11.31;100.00;98287.31;5027114;28;20217;-80
2023/03/30 05:25:06;;;;;;;13.00;4.40;;;;;;;11.37;100.00;98285.00;4981025;28;20190;-79
2023/03/30 05:27:36;;;;;;;13.37;4.80;;;;;;;11.38;100.00;98291.13;4970153;28;20243;-80
2023/03/30 05:30:07;;;;;;;14.10;4.40;;;;;;;11.30;100.00;98296.25;4976404;28;20198;-80
2023/03/30 05:32:35;;;;;;;12.00;4.77;;;;;;;11.38;100.00;98297.28;5006575;28;20195;-79
2023/03/30 05:35:04;;;;;;;9.03;4.07;;;;;;;11.42;100.00;98303.19;5008972;28;20265;-80
2023/03/30 05:37:32;;;;;;;8.70;4.17;;;;;;;11.34;100.00;98292.38;4969385;28;20226;-80
2023/03/30 05:40:04;;;;;;;9.73;3.83;;;;;;;11.39;100.00;98282.25;4967706;28;20220;-79
2023/03/30 05:42:32;;;;;;;8.83;4.73;;;;;;;11.42;100.00;98293.44;4914876;29;20344;-80
2023/03/30 05:45:03;;;;;;;11.63;4.53;;;;;;;11.32;100.00;98299.59;4912591;29;20198;-79
2023/03/30 05:47:31;;;;;;;9.13;4.40;;;;;;;11.24;100.00;98300.22;4912517;29;20210;-80
2023/03/30 05:49:59;;;;;;;10.80;4.30;;;;;;;11.21;100.00;98320.84;4912306;29;20272;-80
2023/03/30 05:52:28;;;;;;;10.27;4.67;;;;;;;11.24;100.00;98339.97;4943495;28;20196;-80
2023/03/30 05:54:57;;;;;;;16.30;4.50;;;;;;;11.18;100.00;98345.75;4970764;28;20206;-80
2023/03/30 05:57:27;;;;;;;10.50;4.70;;;;;;;11.08;100.00;98343.00;4988343;28;20195;-81
2023/03/30 05:59:57;;;;;;;8.97;4.10;;;;;;;11.17;100.00;98338.78;4989262;28;20254;-80
2023/03/30 06:02:29;;;;;;;11.80;4.27;;;;;;;11.18;100.00;98330.69;4990236;28;20199;-80
2023/03/30 06:05:00;;;;;;;11.17;4.67;;;;;;;11.22;100.00;98320.72;4982677;28;20230;-80
2023/03/30 06:07:29;;;;;;;11.07;4.70;;;;;;;11.20;100.00;98314.69;4985534;28;20199;-80
2023/03/30 06:10:00;;;;;;;14.43;4.30;;;;;;;11.07;100.00;98316.63;4983145;28;20286;-80
2023/03/30 06:12:28;;;;;;;15.47;5.03;;;;;;;11.02;100.00;98337.38;4989639;28;20199;-80
2023/03/30 06:14:56;;;;;;;9.33;4.80;;;;;;;10.98;100.00;98338.53;5065814;28;20237;-80
2023/03/30 06:17:25;;;;;;;14.90;5.00;;;;;;;10.94;100.00;98347.72;5061658;28;20196;-79
2023/03/30 06:19:55;;;;;;;11.60;5.40;;;;;;;10.94;100.00;98347.72;5066832;28;20227;-80
2023/03/30 06:22:23;;;;;;;10.93;5.20;;;;;;;10.85;100.00;98350.13;5063272;28;20329;-79
2023/03/30 06:24:51;;;;;;;9.57;4.87;;;;;;;10.89;100.00;98330.34;5036728;28;20241;-80
2023/03/30 06:27:20;;;;;;;10.60;4.50;;;;;;;10.91;100.00;98335.56;5062587;28;20242;-81
2023/03/30 06:29:48;;;;;;;12.87;4.80;;;;;;;10.96;100.00;98333.38;5064419;28;20230;-80
2023/03/30 06:32:17;;;;;;;11.67;4.20;;;;;;;10.96;100.00;98341.31;5062919;28;20200;-80
2023/03/30 06:34:45;;;;;;;9.13;4.20;;;;;;;11.08;100.00;98343.00;5069453;28;20241;-81
2023/03/30 06:37:15;;;;;;;9.77;4.00;;;;;;;11.05;100.00;98340.59;5069523;28;20274;-80
2023/03/30 06:39:45;;;;;;;9.27;4.50;;;;;;;11.13;100.00;98342.66;4985245;28;20265;-79
2023/03/30 06:42:13;;;;;;;13.47;4.93;;;;;;;11.20;100.00;98361.56;4986768;28;20246;-80
2023/03/30 06:44:41;;;;;;;13.23;4.40;;;;;;;11.16;100.00;98363.59;4988417;28;20206;-80
2023/03/30 06:47:09;;;;;;;10.77;4.90;;;;;;;11.27;100.00;98371.53;4987592;28;20191;-80
2023/03/30 06:49:38;;;;;;;12.80;4.40;;;;;;;11.16;100.00;98359.13;4988304;28;20261;-79
2023/03/30 06:52:06;;;;;;;11.10;5.10;;;;;;;11.32;100.00;98368.53;4984156;28;20201;-79
2023/03/30 06:54:37;;;;;;;11.80;4.93;;;;;;;11.28;100.00;98361.78;4984654;28;20210;-79
2023/03/30 06:57:06;;;;;;;13.47;4.87;;;;;;;11.30;100.00;98350.09;5008385;28;20200;-81
2023/03/30 06:59:35;;;;;;;10.87;4.73;;;;;;;11.37;100.00;98338.03;5066018;28;20215;-80
2023/03/30 07:02:03;;;;;;;15.67;4.27;;;;;;;11.42;100.00;98343.81;5066693;28;20219;-80
2023/03/30 07:04:33;;;;;;;10.30;4.40;;;;;;;11.47;100.00;98346.06;5069172;28;20220;-79
2023/03/30 07:07:02;;;;;;;15.87;5.17;;;;;;;11.43;100.00;98356.09;5064938;28;20238;-80
2023/03/30 07:09:30;;;;;;;10.60;4.67;;;;;;;11.61;100.00;98359.06;5067965;28;20195;-80
2023/03/30 07:12:00;;;;;;;14.30;4.43;;;;;;;11.80;100.00;98353.16;5067326;28;20200;-80
2023/03/30 07:14:28;;;;;;;9.53;3.67;;;;;;;11.89;100.00;98363.00;5063288;28;20200;-79
2023/03/30 07:16:58;;;;;;;9.63;4.00;;;;;;;12.02;100.00;98379.59;5061933;28;20204;-79
2023/03/30 07:19:27;;;;;;;15.17;4.40;;;;;;;12.14;100.00;98390.16;5073086;28;20188;-80
2023/03/30 07:21:55;;;;;;;14.63;7.63;;;;;;;12.21;100.00;98381.56;5075916;28;20242;-80
2023/03/30 07:24:24;;;;;;;8.03;3.83;;;;;;;12.23;100.00;98382.28;5012879;28;20234;-80
2023/03/30 07:26:52;;;;;;;9.07;4.00;;;;;;;12.32;100.00;98378.88;5010428;28;20209;-80
2023/03/30 07:29:22;;;;;;;10.03;3.53;;;;;;;12.41;100.00;98384.38;5010143;28;20206;-81
2023/03/30 07:31:54;;;;;;;9.70;3.97;;;;;;;12.28;100.00;98373.94;5013878;28;20198;-80
2023/03/30 07:34:22;;;;;;;10.83;4.17;;;;;;;12.10;100.00;98378.13;5011433;28;20194;-80
2023/03/30 07:36:50;;;;;;;11.80;4.30;;;;;;;12.06;100.00;98379.34;5011337;28;20733;-80
2023/03/30 07:39:21;;;;;;;8.77;4.30;;;;;;;11.82;100.00;98383.03;5012648;28;20252;-79
2023/03/30 07:41:49;;;;;;;12.93;5.30;;;;;;;11.78;100.00;98386.06;5020872;28;20271;-80
2023/03/30 07:44:18;;;;;;;12.07;4.60;;;;;;;11.83;100.00;98390.03;5052829;28;20205;-80
2023/03/30 07:46:48;;;;;;;13.83;5.07;;;;;;;11.82;100.00;98390.16;5055512;28;20203;-80
2023/03/30 07:49:17;;;;;;;11.70;5.03;;;;;;;11.91;100.00;98373.50;5055440;28;20193;-80
2023/03/30 07:51:46;;;;;;;13.67;5.70;;;;;;;11.87;100.00;98377.34;5049745;28;20205;-80
2023/03/30 07:54:14;;;;;;;11.33;5.20;;;;;;;11.86;100.00;98383.63;5052670;28;20201;-80
2023/03/30 07:56:43;;;;;;;13.13;5.30;;;;;;;11.94;100.00;98392.66;5043169;28;20205;-80
2023/03/30 07:59:13;;;;;;;15.57;5.97;;;;;;;12.01;100.00;98388.53;5055027;28;20201;-80
2023/03/30 08:01:41;;;;;;;14.30;5.40;;;;;;;12.00;100.00;98388.66;5055265;28;20258;-80
2023/03/30 08:04:11;;;;;;;11.17;5.37;;;;;;;11.94;100.00;98402.44;5051347;28;20200;-80
2023/03/30 08:06:40;;;;;;;12.70;5.30;;;;;;;11.95;100.00;98393.50;5054318;28;20276;-82
2023/03/30 08:09:09;;;;;;;11.30;5.60;;;;;;;12.00;100.00;98396.63;5053444;28;20201;-79
2023/03/30 08:11:37;;;;;;;15.33;6.57;;;;;;;12.07;100.00;98391.66;5047251;28;20193;-79
2023/03/30 08:14:06;;;;;;;13.97;5.57;;;;;;;12.01;100.00;98398.31;5054585;28;20205;-80
2023/03/30 08:16:34;;;;;;;15.73;6.13;;;;;;;12.08;100.00;98407.47;5050962;28;20197;-81
2023/03/30 08:19:03;;;;;;;15.87;5.90;;;;;;;11.98;100.00;98396.75;5044993;28;20208;-80
2023/03/30 08:21:32;;;;;;;14.13;5.70;;;;;;;12.03;100.00;98399.88;5054257;28;20271;-80
2023/03/30 08:24:01;;;;;;;17.00;6.13;;;;;;;12.06;100.00;98396.09;5053398;28;20193;-80
2023/03/30 08:26:31;;;;;;;12.93;5.77;;;;;;;12.14;100.00;98398.13;5054875;28;20201;-80
2023/03/30 08:28:59;;;;;;;16.90;6.60;;;;;;;12.00;100.00;98418.69;5052678;28;20193;-79
2023/03/30 08:31:31;;;;;;;14.53;6.40;;;;;;;12.06;100.00;98421.81;5053410;28;20197;-80
2023/03/30 08:34:02;;;;;;;15.37;5.83;;;;;;;12.16;100.00;98417.41;5049879;28;20243;-79
2023/03/30 08:36:32;;;;;;;13.70;5.73;;;;;;;12.31;100.00;98414.34;5063784;28;20228;-80
2023/03/30 08:39:01;;;;;;;14.90;6.43;;;;;;;12.37;100.00;98412.19;5019229;28;20215;-80
2023/03/30 08:42:09;;;;;;;12.43;5.67;;;;;;;12.46;100.00;98414.06;5065920;28;20227;-80
2023/03/30 08:44:40;;;;;;;21.87;6.67;;;;;;;12.59;100.00;98415.53;5069445;28;20710;-80
2023/03/30 08:47:13;;;;;;;16.50;5.87;;;;;;;12.54;100.00;98406.28;5068821;28;20231;-80
2023/03/30 08:49:47;;;;;;;10.50;5.70;;;;;;;12.72;100.00;98409.19;5021743;28;20254;-80
2023/03/30 08:52:24;;;;;;;12.47;5.70;;;;;;;12.74;100.00;98410.78;5074330;28;20192;-81
2023/03/30 08:54:52;;;;;;;14.93;6.47;;;;;;;12.86;100.00;98403.56;5030119;28;20212;-80
2023/03/30 08:57:35;;;;;;;16.80;5.77;;;;;;;13.05;100.00;98386.88;5062597;28;20204;-79
2023/03/30 09:00:18;;;;;;;14.60;5.90;;;;;;;13.17;100.00;98383.97;5023269;28;20194;-81
2023/03/30 09:02:50;;;;;;;16.00;6.13;;;;;;;13.30;100.00;98382.94;5037098;28;20303;-80
2023/03/30 09:05:24;;;;;;;17.07;5.73;;;;;;;13.36;100.00;98371.78;5064933;28;20201;-80
2023/03/30 09:08:00;;;;;;;14.43;5.07;;;;;;;13.45;100.00;98368.31;5067339;28;20210;-80
2023/03/30 09:10:31;;;;;;;13.00;5.20;;;;;;;13.45;100.00;98374.47;5068600;28;20192;-80
2023/03/30 09:13:02;;;;;;;12.43;4.60;;;;;;;13.56;100.00;98367.34;5061789;28;20201;-80
2023/03/30 09:15:35;;;;;;;11.67;4.83;;;;;;;13.70;100.00;98362.50;5073654;28;20196;-80
2023/03/30 09:18:12;;;;;;;12.27;4.50;;;;;;;13.79;100.00;98358.13;5067236;28;20258;-79
2023/03/30 09:20:42;;;;;;;9.03;3.90;;;;;;;13.79;100.00;98359.94;5022615;28;20279;-80
2023/03/30 09:23:17;;;;;;;10.23;4.40;;;;;;;13.82;100.00;98357.88;5065807;28;20199;-80
2023/03/30 09:25:52;;;;;;;8.70;4.23;;;;;;;13.89;100.00;98352.81;5072262;28;20220;-80
2023/03/30 09:28:26;;;;;;;8.87;4.03;;;;;;;13.99;100.00;98351.00;5071283;28;20194;-80
2023/03/30 09:31:01;;;;;;;11.40;3.90;;;;;;;14.01;100.00;98346.41;5069059;28;20196;-80
2023/03/30 09:33:42;;;;;;;7.70;3.80;;;;;;;14.11;100.00;98344.59;5073385;28;20257;-80
2023/03/30 09:36:15;;;;;;;11.70;3.93;;;;;;;14.11;100.00;98335.75;5069968;28;20242;-80
2023/03/30 09:38:45;;;;;;;10.43;3.13;;;;;;;13.96;100.00;98336.16;5065090;28;20195;-80
2023/03/30 09:41:29;;;;;;;7.80;3.17;;;;;;;14.04;100.00;98325.66;5061568;28;20220;-80
2023/03/30 09:43:59;;;;;;;10.37;4.00;;;;;;;14.05;100.00;98321.16;5070006;28;20193;-80
2023/03/30 09:46:32;;;;;;;8.97;3.33;;;;;;;14.00;100.00;98342.06;5070309;28;20192;-80
2023/03/30 09:49:14;;;;;;;7.93;3.10;;;;;;;14.03;100.00;98352.41;5059196;28;20200;-80
2023/03/30 09:52:02;;;;;;;7.07;3.00;;;;;;;14.09;100.00;98356.31;5068244;28;20200;-79
2023/03/30 09:54:40;;;;;;;5.90;3.40;;;;;;;14.10;100.00;98353.56;5064351;28;20211;-80
2023/03/30 09:57:28;;;;;;;8.10;3.77;;;;;;;14.11;100.00;98341.91;5064693;28;20230;-80
2023/03/30 09:59:58;;;;;;;8.37;3.53;;;;;;;14.06;100.00;98336.16;5065468;28;20196;-80
2023/03/30 10:02:29;;;;;;;10.03;3.63;;;;;;;14.10;100.00;98342.91;5070049;28;20220;-80
2023/03/30 10:05:02;;;;;;;7.37;2.97;;;;;;;14.03;100.00;98334.63;5071136;28;20207;-79
2023/03/30 10:07:36;;;;;;;7.70;3.00;;;;;;;14.10;100.00;98326.94;5064150;28;20204;-80
2023/03/30 10:10:31;;;;;;;8.33;2.90;;;;;;;14.22;100.00;98335.59;5047950;28;20225;-80
2023/03/30 10:13:05;;;;;;;7.07;2.93;;;;;;;14.24;100.00;98323.81;5046968;28;20667;-80
2023/03/30 10:15:37;;;;;;;10.20;2.87;;;;;;;14.35;100.00;98325.47;5046654;28;20205;-80
2023/03/30 10:18:24;;;;;;;6.07;2.50;;;;;;;14.44;100.00;98331.78;5048063;28;20248;-79
2023/03/30 10:21:05;;;;;;;5.37;2.60;;;;;;;14.33;100.00;98325.63;5046279;28;20204;-80
2023/03/30 10:23:38;;;;;;;6.23;3.30;;;;;;;14.30;100.00;98330.41;5045048;28;20196;-80
2023/03/30 10:26:14;;;;;;;9.30;3.30;;;;;;;14.44;100.00;98332.63;5049850;28;20255;-80
2023/03/30 10:28:53;;;;;;;6.50;2.67;;;;;;;14.56;100.00;98320.00;5057546;28;20211;-80
2023/03/30 10:31:26;;;;;;;8.20;2.90;;;;;;;14.73;100.00;98316.59;5070865;28;20188;-79
2023/03/30 10:33:59;;;;;;;7.50;2.37;;;;;;;14.99;100.00;98297.28;5068109;28;20250;-80
2023/03/30 10:36:31;;;;;;;5.70;2.20;;;;;;;15.17;100.00;98287.50;5065418;28;20236;-80
2023/03/30 10:39:09;;;;;;;4.53;2.10;;;;;;;15.24;100.00;98277.06;5063753;28;20230;-79
2023/03/30 10:41:42;;;;;;;3.77;2.20;;;;;;;15.34;100.00;98283.19;5070191;28;20220;-79
2023/03/30 10:44:20;;;;;;;6.70;2.30;;;;;;;15.19;100.00;98282.88;5064228;28;20275;-79
2023/03/30 10:46:52;;;;;;;5.77;2.20;;;;;;;15.35;100.00;98279.56;5069221;28;20248;-80
2023/03/30 10:49:32;;;;;;;4.47;2.30;;;;;;;15.72;100.00;98250.06;5066399;28;20197;-80
2023/03/30 10:52:07;;;;;;;5.13;1.80;;;;;;;15.80;100.00;98254.66;5070833;28;20192;-80
2023/03/30 10:54:43;;;;;;;5.23;1.90;;;;;;;15.73;100.00;98252.63;5067997;28;20203;-80
2023/03/30 10:57:16;;;;;;;5.17;1.70;;;;;;;15.72;100.00;98242.06;5068035;28;20200;-80
2023/03/30 11:00:08;;;;;;;6.30;2.23;;;;;;;15.85;100.00;98237.19;5072141;28;20191;-80
2023/03/30 11:02:49;;;;;;;4.23;1.60;;;;;;;15.86;100.00;98244.22;5070843;28;20216;-79
2023/03/30 11:05:21;;;;;;;3.83;1.70;;;;;;;16.01;100.00;98239.13;5036807;28;20199;-79
2023/03/30 11:07:57;;;;;;;6.03;1.77;;;;;;;16.05;100.00;98247.69;5068347;28;20245;-79
2023/03/30 11:10:30;;;;;;;5.50;1.50;;;;;;;16.12;100.00;98235.41;5072664;28;20207;-79
2023/03/30 11:13:04;;;;;;;5.23;1.60;;;;;;;16.22;100.00;98241.50;5074296;28;20196;-79
2023/03/30 11:15:40;;;;;;;4.07;1.57;;;;;;;16.54;100.00;98273.78;5073649;28;20249;-79
2023/03/30 11:18:14;;;;;;;6.10;1.60;;;;;;;16.50;100.00;98247.50;5072267;28;20257;-79
2023/03/30 11:20:49;;;;;;;4.43;1.60;;;;;;;16.92;100.00;98234.22;5076241;28;20196;-80
2023/03/30 11:23:27;;;;;;;7.50;1.63;;;;;;;16.53;100.00;98245.34;5073561;28;20215;-80
2023/03/30 11:26:02;;;;;;;5.27;1.80;;;;;;;16.82;100.00;98241.53;5074640;28;20203;-79
2023/03/30 11:28:51;;;;;;;6.07;1.30;;;;;;;16.85;100.00;98228.66;5069519;28;20195;-80
2023/03/30 11:31:32;;;;;;;6.07;1.53;;;;;;;17.17;100.00;98248.50;5072106;28;20200;-80
2023/03/30 11:34:06;;;;;;;4.53;1.30;;;;;;;17.25;100.00;98271.78;5072922;28;20215;-80
2023/03/30 11:36:40;;;;;;;3.33;1.60;;;;;;;17.14;100.00;98252.34;5073048;28;20310;-80
2023/03/30 11:39:14;;;;;;;3.40;1.43;;;;;;;16.89;100.00;98258.63;5069757;28;20193;-80
2023/03/30 11:42:06;;;;;;;4.00;1.40;;;;;;;17.24;100.00;98268.28;5073142;28;20651;-80
2023/03/30 11:44:36;;;;;;;6.50;1.33;;;;;;;16.81;100.00;98254.06;5021948;28;20217;-80
2023/03/30 11:47:20;;;;;;;4.03;1.20;;;;;;;16.55;100.00;98266.59;5072533;28;20193;-80